sensor_id;sensor_type;location;lat;lon;timestamp;P1;durP1;ratioP1;P2;durP2;ratioP2
3369;SDS011;42042;51.948;7.628;2023-07-13T00:00:46;6.73;;;4.10;;
3369;SDS011;42042;51.948;7.628;2023-07-13T00:03:13;6.60;;;3.63;;
3369;SDS011;42042;51.948;7.628;2023-07-13T00:05:40;10.90;;;4.20;;
3369;SDS011;42042;51.948;7.628;2023-07-13T00:08:07;5.40;;;4.03;;
3369;SDS011;42042;51.948;7.628;2023-07-13T00:10:38;7.23;;;4.13;;
3369;SDS011;42042;51.948;7.628;2023-07-13T00:13:06;5.40;;;3.50;;
3369;SDS011;42042;51.948;7.628;2023-07-13T00:15:35;9.23;;;4.20;;
3369;SDS011;42042;51.948;7.628;2023-07-13T00:18:02;6.90;;;3.40;;
3369;SDS011;42042;51.948;7.628;2023-07-13T00:20:29;12.47;;;4.10;;
3369;SDS011;42042;51.948;7.628;2023-07-13T00:22:57;8.70;;;3.23;;
3369;SDS011;42042;51.948;7.628;2023-07-13T00:25:24;9.57;;;3.70;;
3369;SDS011;42042;51.948;7.628;2023-07-13T00:27:53;9.83;;;4.50;;
3369;SDS011;42042;51.948;7.628;2023-07-13T00:30:20;10.60;;;4.50;;
3369;SDS011;42042;51.948;7.628;2023-07-13T00:32:49;8.87;;;3.50;;
3369;SDS011;42042;51.948;7.628;2023-07-13T00:35:17;9.67;;;3.47;;
3369;SDS011;42042;51.948;7.628;2023-07-13T00:37:44;6.50;;;3.70;;
3369;SDS011;42042;51.948;7.628;2023-07-13T00:40:12;8.30;;;3.33;;
3369;SDS011;42042;51.948;7.628;2023-07-13T00:42:40;11.40;;;4.37;;
3369;SDS011;42042;51.948;7.628;2023-07-13T00:47:51;5.27;;;3.97;;
3369;SDS011;42042;51.948;7.628;2023-07-13T00:50:18;11.17;;;5.20;;
3369;SDS011;42042;51.948;7.628;2023-07-13T00:52:47;7.87;;;4.30;;
3369;SDS011;42042;51.948;7.628;2023-07-13T00:55:14;6.70;;;4.37;;
3369;SDS011;42042;51.948;7.628;2023-07-13T00:57:42;10.20;;;4.50;;
3369;SDS011;42042;51.948;7.628;2023-07-13T01:00:10;8.73;;;4.60;;
3369;SDS011;42042;51.948;7.628;2023-07-13T01:02:38;12.03;;;4.40;;
3369;SDS011;42042;51.948;7.628;2023-07-13T01:05:10;6.73;;;3.97;;
3369;SDS011;42042;51.948;7.628;2023-07-13T01:07:38;4.40;;;3.97;;
3369;SDS011;42042;51.948;7.628;2023-07-13T01:10:05;5.27;;;3.97;;
3369;SDS011;42042;51.948;7.628;2023-07-13T01:12:33;6.00;;;4.13;;
3369;SDS011;42042;51.948;7.628;2023-07-13T01:15:02;9.23;;;4.20;;
3369;SDS011;42042;51.948;7.628;2023-07-13T01:17:29;5.60;;;4.23;;
3369;SDS011;42042;51.948;7.628;2023-07-13T01:19:58;8.50;;;4.00;;
3369;SDS011;42042;51.948;7.628;2023-07-13T01:22:27;8.93;;;4.50;;
3369;SDS011;42042;51.948;7.628;2023-07-13T01:24:54;8.23;;;3.83;;
3369;SDS011;42042;51.948;7.628;2023-07-13T01:27:23;8.20;;;4.70;;
3369;SDS011;42042;51.948;7.628;2023-07-13T01:29:51;4.80;;;4.07;;
3369;SDS011;42042;51.948;7.628;2023-07-13T01:32:19;7.30;;;4.33;;
3369;SDS011;42042;51.948;7.628;2023-07-13T01:34:49;8.50;;;4.70;;
3369;SDS011;42042;51.948;7.628;2023-07-13T01:37:19;10.20;;;5.10;;
3369;SDS011;42042;51.948;7.628;2023-07-13T01:39:48;8.87;;;4.60;;
3369;SDS011;42042;51.948;7.628;2023-07-13T01:42:15;7.03;;;4.50;;
3369;SDS011;42042;51.948;7.628;2023-07-13T01:44:42;8.03;;;4.40;;
3369;SDS011;42042;51.948;7.628;2023-07-13T01:47:09;7.60;;;4.40;;
3369;SDS011;42042;51.948;7.628;2023-07-13T01:49:37;6.47;;;3.80;;
3369;SDS011;42042;51.948;7.628;2023-07-13T01:52:04;14.53;;;6.67;;
3369;SDS011;42042;51.948;7.628;2023-07-13T01:54:32;4.60;;;3.77;;
3369;SDS011;42042;51.948;7.628;2023-07-13T01:57:00;8.23;;;4.90;;
3369;SDS011;42042;51.948;7.628;2023-07-13T01:59:28;4.93;;;4.40;;
3369;SDS011;42042;51.948;7.628;2023-07-13T02:01:55;9.20;;;4.53;;
3369;SDS011;42042;51.948;7.628;2023-07-13T02:04:23;6.73;;;4.50;;
3369;SDS011;42042;51.948;7.628;2023-07-13T02:06:50;9.07;;;4.77;;
3369;SDS011;42042;51.948;7.628;2023-07-13T02:09:17;6.83;;;4.10;;
3369;SDS011;42042;51.948;7.628;2023-07-13T02:11:44;9.30;;;5.03;;
3369;SDS011;42042;51.948;7.628;2023-07-13T02:14:12;12.47;;;4.97;;
3369;SDS011;42042;51.948;7.628;2023-07-13T02:16:40;8.20;;;4.57;;
3369;SDS011;42042;51.948;7.628;2023-07-13T02:19:07;10.13;;;4.80;;
3369;SDS011;42042;51.948;7.628;2023-07-13T02:21:35;6.53;;;4.57;;
3369;SDS011;42042;51.948;7.628;2023-07-13T02:24:02;7.87;;;6.20;;
3369;SDS011;42042;51.948;7.628;2023-07-13T02:26:29;9.97;;;4.77;;
3369;SDS011;42042;51.948;7.628;2023-07-13T02:28:57;7.67;;;4.83;;
3369;SDS011;42042;51.948;7.628;2023-07-13T02:31:25;13.10;;;5.77;;
3369;SDS011;42042;51.948;7.628;2023-07-13T02:33:53;9.43;;;4.83;;
3369;SDS011;42042;51.948;7.628;2023-07-13T02:36:20;7.20;;;4.60;;
3369;SDS011;42042;51.948;7.628;2023-07-13T02:38:49;9.30;;;5.23;;
3369;SDS011;42042;51.948;7.628;2023-07-13T02:41:16;7.37;;;4.50;;
3369;SDS011;42042;51.948;7.628;2023-07-13T02:43:43;12.10;;;4.80;;
3369;SDS011;42042;51.948;7.628;2023-07-13T02:46:10;6.63;;;3.90;;
3369;SDS011;42042;51.948;7.628;2023-07-13T02:48:39;7.70;;;4.23;;
3369;SDS011;42042;51.948;7.628;2023-07-13T02:51:06;7.03;;;4.67;;
3369;SDS011;42042;51.948;7.628;2023-07-13T02:53:34;5.50;;;4.73;;
3369;SDS011;42042;51.948;7.628;2023-07-13T02:56:01;6.57;;;3.50;;
3369;SDS011;42042;51.948;7.628;2023-07-13T02:58:28;5.57;;;3.93;;
3369;SDS011;42042;51.948;7.628;2023-07-13T03:00:56;7.53;;;4.40;;
3369;SDS011;42042;51.948;7.628;2023-07-13T03:03:23;7.53;;;4.53;;
3369;SDS011;42042;51.948;7.628;2023-07-13T03:05:58;10.30;;;4.00;;
3369;SDS011;42042;51.948;7.628;2023-07-13T03:08:25;6.27;;;3.83;;
3369;SDS011;42042;51.948;7.628;2023-07-13T03:10:58;14.93;;;4.00;;
3369;SDS011;42042;51.948;7.628;2023-07-13T03:13:25;6.00;;;3.60;;
3369;SDS011;42042;51.948;7.628;2023-07-13T03:15:52;8.50;;;3.97;;
3369;SDS011;42042;51.948;7.628;2023-07-13T03:18:19;12.00;;;3.97;;
3369;SDS011;42042;51.948;7.628;2023-07-13T03:20:51;5.90;;;3.60;;
3369;SDS011;42042;51.948;7.628;2023-07-13T03:23:18;6.07;;;3.40;;
3369;SDS011;42042;51.948;7.628;2023-07-13T03:25:45;7.10;;;3.97;;
3369;SDS011;42042;51.948;7.628;2023-07-13T03:28:13;6.53;;;4.20;;
3369;SDS011;42042;51.948;7.628;2023-07-13T03:30:40;6.10;;;3.33;;
3369;SDS011;42042;51.948;7.628;2023-07-13T03:33:07;4.00;;;3.57;;
3369;SDS011;42042;51.948;7.628;2023-07-13T03:35:35;10.70;;;4.60;;
3369;SDS011;42042;51.948;7.628;2023-07-13T03:38:03;8.93;;;4.53;;
3369;SDS011;42042;51.948;7.628;2023-07-13T03:40:31;5.53;;;4.13;;
3369;SDS011;42042;51.948;7.628;2023-07-13T03:42:58;7.90;;;3.03;;
3369;SDS011;42042;51.948;7.628;2023-07-13T03:45:27;7.97;;;4.00;;
3369;SDS011;42042;51.948;7.628;2023-07-13T03:47:54;7.37;;;3.63;;
3369;SDS011;42042;51.948;7.628;2023-07-13T03:50:21;5.00;;;3.23;;
3369;SDS011;42042;51.948;7.628;2023-07-13T03:52:49;4.80;;;3.73;;
3369;SDS011;42042;51.948;7.628;2023-07-13T03:55:17;8.00;;;3.40;;
3369;SDS011;42042;51.948;7.628;2023-07-13T03:57:44;4.70;;;3.33;;
3369;SDS011;42042;51.948;7.628;2023-07-13T04:00:13;6.77;;;3.30;;
3369;SDS011;42042;51.948;7.628;2023-07-13T04:02:41;11.03;;;3.50;;
3369;SDS011;42042;51.948;7.628;2023-07-13T04:05:08;7.33;;;3.50;;
3369;SDS011;42042;51.948;7.628;2023-07-13T04:07:35;10.50;;;4.37;;
3369;SDS011;42042;51.948;7.628;2023-07-13T04:10:02;8.90;;;3.37;;
3369;SDS011;42042;51.948;7.628;2023-07-13T04:12:31;5.80;;;3.50;;
3369;SDS011;42042;51.948;7.628;2023-07-13T04:14:58;7.83;;;3.73;;
3369;SDS011;42042;51.948;7.628;2023-07-13T04:17:25;10.00;;;3.07;;
3369;SDS011;42042;51.948;7.628;2023-07-13T04:19:52;6.30;;;3.13;;
3369;SDS011;42042;51.948;7.628;2023-07-13T04:22:20;8.80;;;3.53;;
3369;SDS011;42042;51.948;7.628;2023-07-13T04:24:47;6.40;;;3.67;;
3369;SDS011;42042;51.948;7.628;2023-07-13T04:27:14;5.10;;;2.90;;
3369;SDS011;42042;51.948;7.628;2023-07-13T04:29:43;8.47;;;3.20;;
3369;SDS011;42042;51.948;7.628;2023-07-13T04:32:10;7.90;;;3.17;;
3369;SDS011;42042;51.948;7.628;2023-07-13T04:34:37;5.30;;;2.80;;
3369;SDS011;42042;51.948;7.628;2023-07-13T04:37:05;4.80;;;3.20;;
3369;SDS011;42042;51.948;7.628;2023-07-13T04:39:32;6.33;;;2.50;;
3369;SDS011;42042;51.948;7.628;2023-07-13T04:41:59;7.43;;;3.83;;
3369;SDS011;42042;51.948;7.628;2023-07-13T04:44:26;5.87;;;2.90;;
3369;SDS011;42042;51.948;7.628;2023-07-13T04:46:55;6.70;;;2.80;;
3369;SDS011;42042;51.948;7.628;2023-07-13T04:49:22;8.07;;;3.37;;
3369;SDS011;42042;51.948;7.628;2023-07-13T04:51:49;8.13;;;3.10;;
3369;SDS011;42042;51.948;7.628;2023-07-13T04:54:16;6.90;;;3.07;;
3369;SDS011;42042;51.948;7.628;2023-07-13T04:56:43;5.03;;;3.40;;
3369;SDS011;42042;51.948;7.628;2023-07-13T04:59:10;7.13;;;3.10;;
3369;SDS011;42042;51.948;7.628;2023-07-13T05:01:38;5.30;;;3.60;;
3369;SDS011;42042;51.948;7.628;2023-07-13T05:04:07;5.13;;;2.63;;
3369;SDS011;42042;51.948;7.628;2023-07-13T05:06:34;6.93;;;3.10;;
3369;SDS011;42042;51.948;7.628;2023-07-13T05:09:01;10.07;;;3.97;;
3369;SDS011;42042;51.948;7.628;2023-07-13T05:11:28;7.20;;;3.50;;
3369;SDS011;42042;51.948;7.628;2023-07-13T05:13:56;8.83;;;3.57;;
3369;SDS011;42042;51.948;7.628;2023-07-13T05:16:23;7.97;;;3.23;;
3369;SDS011;42042;51.948;7.628;2023-07-13T05:18:50;4.60;;;2.53;;
3369;SDS011;42042;51.948;7.628;2023-07-13T05:21:19;8.20;;;3.70;;
3369;SDS011;42042;51.948;7.628;2023-07-13T05:23:46;7.87;;;2.83;;
3369;SDS011;42042;51.948;7.628;2023-07-13T05:26:14;6.97;;;3.13;;
3369;SDS011;42042;51.948;7.628;2023-07-13T05:28:41;7.20;;;2.83;;
3369;SDS011;42042;51.948;7.628;2023-07-13T05:31:08;8.57;;;3.27;;
3369;SDS011;42042;51.948;7.628;2023-07-13T05:33:36;7.33;;;2.90;;
3369;SDS011;42042;51.948;7.628;2023-07-13T05:36:03;7.03;;;3.10;;
3369;SDS011;42042;51.948;7.628;2023-07-13T05:38:31;8.57;;;3.63;;
3369;SDS011;42042;51.948;7.628;2023-07-13T05:40:59;8.17;;;3.00;;
3369;SDS011;42042;51.948;7.628;2023-07-13T05:43:26;10.60;;;3.23;;
3369;SDS011;42042;51.948;7.628;2023-07-13T05:45:54;5.63;;;3.70;;
3369;SDS011;42042;51.948;7.628;2023-07-13T05:48:21;11.73;;;4.57;;
3369;SDS011;42042;51.948;7.628;2023-07-13T05:50:48;7.00;;;3.20;;
3369;SDS011;42042;51.948;7.628;2023-07-13T05:53:16;10.33;;;3.23;;
3369;SDS011;42042;51.948;7.628;2023-07-13T05:55:45;7.50;;;3.20;;
3369;SDS011;42042;51.948;7.628;2023-07-13T05:58:15;11.40;;;3.20;;
3369;SDS011;42042;51.948;7.628;2023-07-13T06:00:43;8.50;;;3.70;;
3369;SDS011;42042;51.948;7.628;2023-07-13T06:03:10;9.90;;;4.07;;
3369;SDS011;42042;51.948;7.628;2023-07-13T06:05:37;6.60;;;3.77;;
3369;SDS011;42042;51.948;7.628;2023-07-13T06:08:05;9.20;;;4.07;;
3369;SDS011;42042;51.948;7.628;2023-07-13T06:10:32;12.90;;;4.60;;
3369;SDS011;42042;51.948;7.628;2023-07-13T06:13:01;9.10;;;4.33;;
3369;SDS011;42042;51.948;7.628;2023-07-13T06:15:28;8.73;;;3.80;;
3369;SDS011;42042;51.948;7.628;2023-07-13T06:17:55;13.43;;;3.90;;
3369;SDS011;42042;51.948;7.628;2023-07-13T06:20:22;9.30;;;4.07;;
3369;SDS011;42042;51.948;7.628;2023-07-13T06:22:50;8.03;;;4.10;;
3369;SDS011;42042;51.948;7.628;2023-07-13T06:25:17;11.80;;;4.80;;
3369;SDS011;42042;51.948;7.628;2023-07-13T06:27:44;9.30;;;4.60;;
3369;SDS011;42042;51.948;7.628;2023-07-13T06:30:13;5.60;;;4.03;;
3369;SDS011;42042;51.948;7.628;2023-07-13T06:32:41;9.60;;;3.80;;
3369;SDS011;42042;51.948;7.628;2023-07-13T06:35:08;10.73;;;4.10;;
3369;SDS011;42042;51.948;7.628;2023-07-13T06:37:37;7.30;;;3.80;;
3369;SDS011;42042;51.948;7.628;2023-07-13T06:40:05;10.10;;;4.00;;
3369;SDS011;42042;51.948;7.628;2023-07-13T06:42:32;7.57;;;3.23;;
3369;SDS011;42042;51.948;7.628;2023-07-13T06:44:59;5.80;;;3.93;;
3369;SDS011;42042;51.948;7.628;2023-07-13T06:47:28;12.20;;;3.67;;
3369;SDS011;42042;51.948;7.628;2023-07-13T06:49:55;8.80;;;4.17;;
3369;SDS011;42042;51.948;7.628;2023-07-13T06:52:22;6.20;;;3.97;;
3369;SDS011;42042;51.948;7.628;2023-07-13T06:54:49;11.97;;;3.70;;
3369;SDS011;42042;51.948;7.628;2023-07-13T06:57:17;8.70;;;3.73;;
3369;SDS011;42042;51.948;7.628;2023-07-13T06:59:44;9.30;;;3.67;;
3369;SDS011;42042;51.948;7.628;2023-07-13T07:02:11;7.30;;;3.50;;
3369;SDS011;42042;51.948;7.628;2023-07-13T07:04:39;12.60;;;4.33;;
3369;SDS011;42042;51.948;7.628;2023-07-13T07:07:07;9.13;;;3.50;;
3369;SDS011;42042;51.948;7.628;2023-07-13T07:09:34;9.27;;;3.80;;
3369;SDS011;42042;51.948;7.628;2023-07-13T07:12:01;5.30;;;3.40;;
3369;SDS011;42042;51.948;7.628;2023-07-13T07:14:29;9.70;;;3.53;;
3369;SDS011;42042;51.948;7.628;2023-07-13T07:16:56;6.13;;;2.97;;
3369;SDS011;42042;51.948;7.628;2023-07-13T07:19:24;8.70;;;3.40;;
3369;SDS011;42042;51.948;7.628;2023-07-13T07:21:52;6.70;;;3.10;;
3369;SDS011;42042;51.948;7.628;2023-07-13T07:24:19;6.43;;;3.10;;
3369;SDS011;42042;51.948;7.628;2023-07-13T07:26:47;7.23;;;3.13;;
3369;SDS011;42042;51.948;7.628;2023-07-13T07:29:14;8.10;;;3.30;;
3369;SDS011;42042;51.948;7.628;2023-07-13T07:31:41;6.77;;;3.27;;
3369;SDS011;42042;51.948;7.628;2023-07-13T07:34:08;7.20;;;3.37;;
3369;SDS011;42042;51.948;7.628;2023-07-13T07:36:35;8.33;;;4.00;;
3369;SDS011;42042;51.948;7.628;2023-07-13T07:39:04;6.10;;;3.03;;
3369;SDS011;42042;51.948;7.628;2023-07-13T07:41:31;4.90;;;3.17;;
3369;SDS011;42042;51.948;7.628;2023-07-13T07:43:58;9.83;;;3.80;;
3369;SDS011;42042;51.948;7.628;2023-07-13T07:46:25;8.87;;;3.77;;
3369;SDS011;42042;51.948;7.628;2023-07-13T07:48:53;7.37;;;3.43;;
3369;SDS011;42042;51.948;7.628;2023-07-13T07:51:20;9.30;;;3.90;;
3369;SDS011;42042;51.948;7.628;2023-07-13T07:53:47;10.03;;;3.97;;
3369;SDS011;42042;51.948;7.628;2023-07-13T07:56:16;7.07;;;3.93;;
3369;SDS011;42042;51.948;7.628;2023-07-13T07:58:43;8.43;;;3.60;;
3369;SDS011;42042;51.948;7.628;2023-07-13T08:01:10;9.70;;;3.90;;
3369;SDS011;42042;51.948;7.628;2023-07-13T08:03:37;9.33;;;4.13;;
3369;SDS011;42042;51.948;7.628;2023-07-13T08:06:05;10.00;;;4.27;;
3369;SDS011;42042;51.948;7.628;2023-07-13T08:08:32;7.40;;;3.87;;
3369;SDS011;42042;51.948;7.628;2023-07-13T08:11:01;5.67;;;4.40;;
3369;SDS011;42042;51.948;7.628;2023-07-13T08:13:30;15.60;;;5.30;;
3369;SDS011;42042;51.948;7.628;2023-07-13T08:15:57;9.40;;;5.97;;
3369;SDS011;42042;51.948;7.628;2023-07-13T08:18:24;12.17;;;5.10;;
3369;SDS011;42042;51.948;7.628;2023-07-13T08:20:53;10.07;;;5.77;;
3369;SDS011;42042;51.948;7.628;2023-07-13T08:23:21;9.87;;;5.80;;
3369;SDS011;42042;51.948;7.628;2023-07-13T08:25:50;6.37;;;5.30;;
3369;SDS011;42042;51.948;7.628;2023-07-13T08:28:18;10.83;;;6.03;;
3369;SDS011;42042;51.948;7.628;2023-07-13T08:30:47;9.37;;;6.50;;
3369;SDS011;42042;51.948;7.628;2023-07-13T08:33:14;9.20;;;5.30;;
3369;SDS011;42042;51.948;7.628;2023-07-13T08:35:41;13.13;;;5.73;;
3369;SDS011;42042;51.948;7.628;2023-07-13T08:38:08;9.60;;;4.93;;
3369;SDS011;42042;51.948;7.628;2023-07-13T08:40:36;11.70;;;6.10;;
3369;SDS011;42042;51.948;7.628;2023-07-13T08:43:03;13.47;;;5.10;;
3369;SDS011;42042;51.948;7.628;2023-07-13T08:45:33;8.60;;;5.57;;
3369;SDS011;42042;51.948;7.628;2023-07-13T08:48:09;6.83;;;4.90;;
3369;SDS011;42042;51.948;7.628;2023-07-13T08:50:39;10.20;;;5.67;;
3369;SDS011;42042;51.948;7.628;2023-07-13T08:53:09;14.87;;;5.80;;
3369;SDS011;42042;51.948;7.628;2023-07-13T08:55:39;6.00;;;4.63;;
3369;SDS011;42042;51.948;7.628;2023-07-13T08:58:09;10.40;;;4.97;;
3369;SDS011;42042;51.948;7.628;2023-07-13T09:00:39;5.30;;;3.90;;
3369;SDS011;42042;51.948;7.628;2023-07-13T09:03:12;8.00;;;4.50;;
3369;SDS011;42042;51.948;7.628;2023-07-13T09:05:45;11.50;;;5.73;;
3369;SDS011;42042;51.948;7.628;2023-07-13T09:08:31;14.87;;;4.70;;
3369;SDS011;42042;51.948;7.628;2023-07-13T09:11:02;8.07;;;4.07;;
3369;SDS011;42042;51.948;7.628;2023-07-13T09:13:33;8.53;;;4.70;;
3369;SDS011;42042;51.948;7.628;2023-07-13T09:16:03;11.10;;;4.90;;
3369;SDS011;42042;51.948;7.628;2023-07-13T09:18:34;6.73;;;4.07;;
3369;SDS011;42042;51.948;7.628;2023-07-13T09:21:02;11.47;;;5.10;;
3369;SDS011;42042;51.948;7.628;2023-07-13T09:23:30;10.80;;;4.70;;
3369;SDS011;42042;51.948;7.628;2023-07-13T09:26:00;10.73;;;4.20;;
3369;SDS011;42042;51.948;7.628;2023-07-13T09:28:29;10.10;;;3.97;;
3369;SDS011;42042;51.948;7.628;2023-07-13T09:30:58;7.10;;;4.20;;
3369;SDS011;42042;51.948;7.628;2023-07-13T09:33:27;9.20;;;4.40;;
3369;SDS011;42042;51.948;7.628;2023-07-13T09:35:57;10.17;;;4.07;;
3369;SDS011;42042;51.948;7.628;2023-07-13T09:38:25;6.73;;;3.70;;
3369;SDS011;42042;51.948;7.628;2023-07-13T09:40:59;7.73;;;3.93;;
3369;SDS011;42042;51.948;7.628;2023-07-13T09:43:27;7.00;;;3.73;;
3369;SDS011;42042;51.948;7.628;2023-07-13T09:45:55;8.10;;;4.27;;
3369;SDS011;42042;51.948;7.628;2023-07-13T09:48:22;6.67;;;4.03;;
3369;SDS011;42042;51.948;7.628;2023-07-13T09:50:53;7.40;;;3.80;;
3369;SDS011;42042;51.948;7.628;2023-07-13T09:53:23;9.20;;;4.00;;
3369;SDS011;42042;51.948;7.628;2023-07-13T09:55:50;5.97;;;3.33;;
3369;SDS011;42042;51.948;7.628;2023-07-13T09:58:18;9.07;;;3.97;;
3369;SDS011;42042;51.948;7.628;2023-07-13T10:00:54;8.43;;;4.20;;
3369;SDS011;42042;51.948;7.628;2023-07-13T10:03:22;10.50;;;3.10;;
3369;SDS011;42042;51.948;7.628;2023-07-13T10:05:50;6.63;;;3.73;;
3369;SDS011;42042;51.948;7.628;2023-07-13T10:08:20;4.90;;;3.40;;
3369;SDS011;42042;51.948;7.628;2023-07-13T10:10:53;5.30;;;3.53;;
3369;SDS011;42042;51.948;7.628;2023-07-13T10:13:24;14.10;;;3.67;;
3369;SDS011;42042;51.948;7.628;2023-07-13T10:15:53;11.23;;;4.27;;
3369;SDS011;42042;51.948;7.628;2023-07-13T10:18:21;9.80;;;5.00;;
3369;SDS011;42042;51.948;7.628;2023-07-13T10:20:49;8.77;;;4.10;;
3369;SDS011;42042;51.948;7.628;2023-07-13T10:23:20;9.17;;;4.30;;
3369;SDS011;42042;51.948;7.628;2023-07-13T10:25:48;5.23;;;4.13;;
3369;SDS011;42042;51.948;7.628;2023-07-13T10:28:20;7.90;;;4.60;;
3369;SDS011;42042;51.948;7.628;2023-07-13T10:30:49;11.30;;;5.17;;
3369;SDS011;42042;51.948;7.628;2023-07-13T10:33:17;6.43;;;4.80;;
3369;SDS011;42042;51.948;7.628;2023-07-13T10:35:44;4.90;;;4.30;;
3369;SDS011;42042;51.948;7.628;2023-07-13T10:38:12;7.03;;;4.37;;
3369;SDS011;42042;51.948;7.628;2023-07-13T10:40:41;8.87;;;4.60;;
3369;SDS011;42042;51.948;7.628;2023-07-13T10:43:11;7.90;;;4.93;;
3369;SDS011;42042;51.948;7.628;2023-07-13T10:45:42;6.90;;;4.83;;
3369;SDS011;42042;51.948;7.628;2023-07-13T10:48:11;5.80;;;4.27;;
3369;SDS011;42042;51.948;7.628;2023-07-13T10:50:40;5.20;;;3.90;;
3369;SDS011;42042;51.948;7.628;2023-07-13T10:53:17;8.00;;;4.03;;
3369;SDS011;42042;51.948;7.628;2023-07-13T10:55:54;6.23;;;3.93;;
3369;SDS011;42042;51.948;7.628;2023-07-13T10:58:23;5.07;;;3.33;;
3369;SDS011;42042;51.948;7.628;2023-07-13T11:00:53;7.87;;;4.90;;
3369;SDS011;42042;51.948;7.628;2023-07-13T11:03:24;8.20;;;4.40;;
3369;SDS011;42042;51.948;7.628;2023-07-13T11:06:03;5.93;;;3.20;;
3369;SDS011;42042;51.948;7.628;2023-07-13T11:08:35;4.50;;;3.33;;
3369;SDS011;42042;51.948;7.628;2023-07-13T11:11:04;5.30;;;3.40;;
3369;SDS011;42042;51.948;7.628;2023-07-13T11:13:57;7.83;;;3.27;;
3369;SDS011;42042;51.948;7.628;2023-07-13T11:16:36;4.93;;;3.60;;
3369;SDS011;42042;51.948;7.628;2023-07-13T11:19:22;4.00;;;2.90;;
3369;SDS011;42042;51.948;7.628;2023-07-13T11:22:10;3.80;;;2.90;;
3369;SDS011;42042;51.948;7.628;2023-07-13T11:24:48;4.33;;;3.17;;
3369;SDS011;42042;51.948;7.628;2023-07-13T11:27:21;6.73;;;3.30;;
3369;SDS011;42042;51.948;7.628;2023-07-13T11:29:49;12.23;;;2.90;;
3369;SDS011;42042;51.948;7.628;2023-07-13T11:32:24;3.77;;;2.60;;
3369;SDS011;42042;51.948;7.628;2023-07-13T11:34:52;4.10;;;2.97;;
3369;SDS011;42042;51.948;7.628;2023-07-13T11:37:20;4.37;;;2.50;;
3369;SDS011;42042;51.948;7.628;2023-07-13T11:39:49;4.83;;;3.10;;
3369;SDS011;42042;51.948;7.628;2023-07-13T11:42:18;4.27;;;2.90;;
3369;SDS011;42042;51.948;7.628;2023-07-13T11:44:47;4.70;;;3.57;;
3369;SDS011;42042;51.948;7.628;2023-07-13T11:47:17;9.43;;;4.37;;
3369;SDS011;42042;51.948;7.628;2023-07-13T11:49:49;5.00;;;3.20;;
3369;SDS011;42042;51.948;7.628;2023-07-13T11:52:18;7.17;;;3.60;;
3369;SDS011;42042;51.948;7.628;2023-07-13T11:54:47;6.73;;;3.00;;
3369;SDS011;42042;51.948;7.628;2023-07-13T11:57:19;3.47;;;3.17;;
3369;SDS011;42042;51.948;7.628;2023-07-13T11:59:48;5.57;;;3.10;;
3369;SDS011;42042;51.948;7.628;2023-07-13T12:02:17;5.33;;;3.00;;
3369;SDS011;42042;51.948;7.628;2023-07-13T12:04:49;8.40;;;3.17;;
3369;SDS011;42042;51.948;7.628;2023-07-13T12:07:18;3.93;;;2.73;;
3369;SDS011;42042;51.948;7.628;2023-07-13T12:09:45;6.43;;;2.70;;
3369;SDS011;42042;51.948;7.628;2023-07-13T12:12:17;4.47;;;2.70;;
3369;SDS011;42042;51.948;7.628;2023-07-13T12:14:45;7.67;;;2.93;;
3369;SDS011;42042;51.948;7.628;2023-07-13T12:17:18;4.20;;;2.73;;
3369;SDS011;42042;51.948;7.628;2023-07-13T12:19:46;9.43;;;3.40;;
3369;SDS011;42042;51.948;7.628;2023-07-13T12:22:16;3.63;;;2.77;;
3369;SDS011;42042;51.948;7.628;2023-07-13T12:24:45;5.30;;;3.30;;
3369;SDS011;42042;51.948;7.628;2023-07-13T12:27:16;5.50;;;3.40;;
3369;SDS011;42042;51.948;7.628;2023-07-13T12:29:49;6.77;;;3.80;;
3369;SDS011;42042;51.948;7.628;2023-07-13T12:32:18;7.63;;;4.80;;
3369;SDS011;42042;51.948;7.628;2023-07-13T12:34:51;5.67;;;4.20;;
3369;SDS011;42042;51.948;7.628;2023-07-13T12:37:20;12.37;;;5.43;;
3369;SDS011;42042;51.948;7.628;2023-07-13T12:39:47;10.70;;;6.30;;
3369;SDS011;42042;51.948;7.628;2023-07-13T12:42:20;9.40;;;7.50;;
3369;SDS011;42042;51.948;7.628;2023-07-13T12:44:50;7.97;;;6.23;;
3369;SDS011;42042;51.948;7.628;2023-07-13T12:47:19;10.10;;;6.70;;
3369;SDS011;42042;51.948;7.628;2023-07-13T12:49:48;9.63;;;6.97;;
3369;SDS011;42042;51.948;7.628;2023-07-13T12:52:17;9.80;;;5.70;;
3369;SDS011;42042;51.948;7.628;2023-07-13T12:54:53;8.33;;;6.80;;
3369;SDS011;42042;51.948;7.628;2023-07-13T12:57:23;7.33;;;5.53;;
3369;SDS011;42042;51.948;7.628;2023-07-13T12:59:51;14.60;;;7.97;;
3369;SDS011;42042;51.948;7.628;2023-07-13T13:02:22;7.57;;;6.00;;
3369;SDS011;42042;51.948;7.628;2023-07-13T13:04:54;6.93;;;6.23;;
3369;SDS011;42042;51.948;7.628;2023-07-13T13:07:22;11.57;;;5.57;;
3369;SDS011;42042;51.948;7.628;2023-07-13T13:09:50;7.20;;;5.27;;
3369;SDS011;42042;51.948;7.628;2023-07-13T13:12:19;9.17;;;5.80;;
3369;SDS011;42042;51.948;7.628;2023-07-13T13:14:46;8.97;;;5.07;;
3369;SDS011;42042;51.948;7.628;2023-07-13T13:17:17;7.33;;;5.40;;
3369;SDS011;42042;51.948;7.628;2023-07-13T13:19:45;6.77;;;5.60;;
3369;SDS011;42042;51.948;7.628;2023-07-13T13:22:12;7.60;;;5.07;;
3369;SDS011;42042;51.948;7.628;2023-07-13T13:24:40;7.20;;;4.57;;
3369;SDS011;42042;51.948;7.628;2023-07-13T13:27:09;5.80;;;4.70;;
3369;SDS011;42042;51.948;7.628;2023-07-13T13:29:38;8.93;;;5.50;;
3369;SDS011;42042;51.948;7.628;2023-07-13T13:32:09;8.67;;;5.07;;
3369;SDS011;42042;51.948;7.628;2023-07-13T13:34:36;10.47;;;5.03;;
3369;SDS011;42042;51.948;7.628;2023-07-13T13:37:04;7.63;;;4.57;;
3369;SDS011;42042;51.948;7.628;2023-07-13T13:39:37;5.53;;;3.90;;
3369;SDS011;42042;51.948;7.628;2023-07-13T13:42:05;5.50;;;4.57;;
3369;SDS011;42042;51.948;7.628;2023-07-13T13:44:32;4.97;;;4.47;;
3369;SDS011;42042;51.948;7.628;2023-07-13T13:47:00;4.20;;;3.90;;
3369;SDS011;42042;51.948;7.628;2023-07-13T13:49:29;4.80;;;4.30;;
3369;SDS011;42042;51.948;7.628;2023-07-13T13:51:57;4.70;;;4.20;;
3369;SDS011;42042;51.948;7.628;2023-07-13T13:54:24;7.03;;;4.20;;
3369;SDS011;42042;51.948;7.628;2023-07-13T13:56:52;6.17;;;4.77;;
3369;SDS011;42042;51.948;7.628;2023-07-13T13:59:20;7.57;;;5.10;;
3369;SDS011;42042;51.948;7.628;2023-07-13T14:01:47;4.97;;;4.47;;
3369;SDS011;42042;51.948;7.628;2023-07-13T14:04:17;5.40;;;4.87;;
3369;SDS011;42042;51.948;7.628;2023-07-13T14:06:44;8.50;;;5.43;;
3369;SDS011;42042;51.948;7.628;2023-07-13T14:09:12;5.33;;;4.47;;
3369;SDS011;42042;51.948;7.628;2023-07-13T14:11:40;5.60;;;4.70;;
3369;SDS011;42042;51.948;7.628;2023-07-13T14:14:09;5.73;;;4.70;;
3369;SDS011;42042;51.948;7.628;2023-07-13T14:16:38;5.60;;;4.93;;
3369;SDS011;42042;51.948;7.628;2023-07-13T14:19:08;6.47;;;5.33;;
3369;SDS011;42042;51.948;7.628;2023-07-13T14:21:38;5.90;;;4.87;;
3369;SDS011;42042;51.948;7.628;2023-07-13T14:24:05;7.27;;;4.87;;
3369;SDS011;42042;51.948;7.628;2023-07-13T14:26:35;5.70;;;5.20;;
3369;SDS011;42042;51.948;7.628;2023-07-13T14:29:04;7.30;;;5.00;;
3369;SDS011;42042;51.948;7.628;2023-07-13T14:31:31;7.57;;;5.40;;
3369;SDS011;42042;51.948;7.628;2023-07-13T14:33:59;7.63;;;4.97;;
3369;SDS011;42042;51.948;7.628;2023-07-13T14:36:27;6.90;;;5.53;;
3369;SDS011;42042;51.948;7.628;2023-07-13T14:38:57;6.07;;;5.13;;
3369;SDS011;42042;51.948;7.628;2023-07-13T14:41:24;5.40;;;4.87;;
3369;SDS011;42042;51.948;7.628;2023-07-13T14:43:52;8.63;;;5.33;;
3369;SDS011;42042;51.948;7.628;2023-07-13T14:46:22;7.87;;;5.00;;
3369;SDS011;42042;51.948;7.628;2023-07-13T14:48:51;6.40;;;4.30;;
3369;SDS011;42042;51.948;7.628;2023-07-13T14:51:19;5.47;;;4.70;;
3369;SDS011;42042;51.948;7.628;2023-07-13T14:53:47;8.20;;;4.20;;
3369;SDS011;42042;51.948;7.628;2023-07-13T14:56:15;5.23;;;4.53;;
3369;SDS011;42042;51.948;7.628;2023-07-13T14:58:42;3.70;;;3.37;;
3369;SDS011;42042;51.948;7.628;2023-07-13T15:01:11;7.13;;;3.20;;
3369;SDS011;42042;51.948;7.628;2023-07-13T15:03:40;5.23;;;3.43;;
3369;SDS011;42042;51.948;7.628;2023-07-13T15:06:08;4.70;;;2.90;;
3369;SDS011;42042;51.948;7.628;2023-07-13T15:08:36;4.70;;;3.60;;